createdAt,value
2018-05-24T00:02:05.799Z,55.91
2018-05-24T00:04:34.190Z,56.56
2018-05-24T00:07:02.618Z,57.36
2018-05-24T00:09:31.050Z,58.28
2018-05-24T00:11:59.470Z,58.52
2018-05-24T00:14:27.864Z,59.31
2018-05-24T00:16:56.250Z,59.39
2018-05-24T00:19:24.702Z,60.40
2018-05-24T00:21:53.143Z,60.58
2018-05-24T00:24:21.552Z,60.87
2018-05-24T00:26:49.996Z,61.39
2018-05-24T00:29:18.411Z,62.23
2018-05-24T00:31:46.787Z,62.23
2018-05-24T00:34:15.240Z,62.60
2018-05-24T00:36:43.636Z,63.00
2018-05-24T00:39:12.232Z,63.46
2018-05-24T00:41:40.620Z,63.76
2018-05-24T00:44:09.082Z,63.82
2018-05-24T00:46:37.501Z,64.37
2018-05-24T00:49:05.953Z,66.70
2018-05-24T00:51:34.326Z,69.23
2018-05-24T00:54:02.713Z,71.21
2018-05-24T00:56:31.163Z,70.09
2018-05-24T00:58:59.526Z,70.40
2018-05-24T01:01:27.895Z,69.67
2018-05-24T01:03:56.336Z,68.49
2018-05-24T01:06:24.739Z,68.03
2018-05-24T01:08:53.216Z,67.68
2018-05-24T01:11:21.607Z,68.85
2018-05-24T01:13:50.097Z,68.88
2018-05-24T01:16:18.512Z,68.60
2018-05-24T01:18:46.902Z,69.15
2018-05-24T01:21:15.330Z,69.08
2018-05-24T01:23:43.782Z,68.78
2018-05-24T01:26:12.189Z,68.95
2018-05-24T01:28:40.623Z,68.88
2018-05-24T01:31:09.058Z,69.28
2018-05-24T01:33:37.503Z,69.52
2018-05-24T01:36:05.916Z,70.15
2018-05-24T01:38:34.322Z,69.94
2018-05-24T01:41:02.815Z,69.92
2018-05-24T01:43:31.257Z,70.60
2018-05-24T01:45:59.684Z,70.62
2018-05-24T01:48:28.142Z,71.14
2018-05-24T01:50:56.607Z,70.79
2018-05-24T01:53:25.052Z,70.39
2018-05-24T01:55:53.480Z,71.45
2018-05-24T01:58:21.894Z,71.19
2018-05-24T02:00:50.299Z,70.35
2018-05-24T02:03:18.690Z,69.81
2018-05-24T02:05:47.078Z,69.85
2018-05-24T02:08:15.538Z,70.78
2018-05-24T02:10:43.898Z,69.96
2018-05-24T02:13:12.374Z,70.16
2018-05-24T02:15:40.767Z,69.74
2018-05-24T02:18:09.155Z,69.85
2018-05-24T02:20:37.592Z,70.93
2018-05-24T02:23:06.050Z,71.98
2018-05-24T02:25:34.447Z,71.22
2018-05-24T02:28:02.832Z,72.12
2018-05-24T02:30:31.303Z,71.95
2018-05-24T02:32:59.734Z,73.04
2018-05-24T02:35:28.133Z,73.27
2018-05-24T02:37:56.563Z,72.42
2018-05-24T02:40:25.084Z,72.19
2018-05-24T02:42:53.495Z,72.75
2018-05-24T02:45:21.928Z,73.11
2018-05-24T02:47:50.331Z,73.06
2018-05-24T02:50:18.705Z,73.20
2018-05-24T02:52:47.147Z,72.13
2018-05-24T02:55:15.539Z,72.12
2018-05-24T02:57:43.973Z,72.88
2018-05-24T03:00:12.355Z,72.30
2018-05-24T03:02:40.801Z,72.64
2018-05-24T03:05:09.184Z,71.89
2018-05-24T03:07:38.318Z,72.02
2018-05-24T03:10:06.759Z,73.66
2018-05-24T03:12:35.272Z,75.02
2018-05-24T03:15:03.759Z,73.25
2018-05-24T03:17:32.183Z,73.32
2018-05-24T03:20:00.794Z,72.62
2018-05-24T03:22:29.241Z,72.00
2018-05-24T03:24:57.649Z,72.28
2018-05-24T03:27:26.091Z,72.81
2018-05-24T03:29:54.487Z,72.35
2018-05-24T03:32:22.897Z,72.17
2018-05-24T03:34:51.305Z,71.45
2018-05-24T03:37:19.740Z,72.38
2018-05-24T03:39:48.119Z,72.12
2018-05-24T03:42:16.531Z,71.01
2018-05-24T03:44:44.912Z,70.34
2018-05-24T03:47:13.343Z,69.88
2018-05-24T03:49:41.728Z,71.17
2018-05-24T03:52:10.154Z,69.94
2018-05-24T03:54:38.620Z,69.25
2018-05-24T03:57:07.030Z,68.57
2018-05-24T04:02:56.417Z,68.32
2018-05-24T04:05:24.842Z,68.14
2018-05-24T04:07:53.263Z,68.25
2018-05-24T04:10:21.750Z,69.04
2018-05-24T04:12:50.159Z,68.56
2018-05-24T04:15:18.603Z,68.62
2018-05-24T04:17:47.018Z,68.78
2018-05-24T04:20:15.431Z,68.67
2018-05-24T04:22:43.879Z,68.79
2018-05-24T04:25:12.324Z,69.49
2018-05-24T04:27:40.724Z,68.48
2018-05-24T04:30:09.148Z,67.38
2018-05-24T04:32:37.592Z,66.68
2018-05-24T04:35:05.994Z,66.80
2018-05-24T04:37:34.396Z,67.43
2018-05-24T04:40:02.841Z,67.15
2018-05-24T04:42:31.270Z,67.42
2018-05-24T04:44:59.653Z,66.55
2018-05-24T04:47:28.090Z,65.97
2018-05-24T04:49:56.528Z,64.64
2018-05-24T04:52:24.944Z,64.00
2018-05-24T04:54:53.315Z,64.25
2018-05-24T04:57:21.806Z,65.34
2018-05-24T04:59:50.234Z,64.43
2018-05-24T05:02:18.700Z,62.93
2018-05-24T05:04:47.109Z,62.15
2018-05-24T05:07:15.544Z,61.53
2018-05-24T05:09:43.993Z,61.10
2018-05-24T05:12:12.383Z,59.92
2018-05-24T05:14:40.802Z,59.66
2018-05-24T05:17:09.254Z,59.01
2018-05-24T05:19:37.714Z,58.64
2018-05-24T05:22:06.135Z,57.98
2018-05-24T05:24:34.532Z,58.17
2018-05-24T05:27:02.971Z,57.90
2018-05-24T05:29:31.339Z,57.27
2018-05-24T05:31:59.786Z,56.32
2018-05-24T05:34:28.190Z,54.93
2018-05-24T05:36:56.643Z,55.10
2018-05-24T05:39:25.041Z,53.91
2018-05-24T05:41:53.523Z,53.33
2018-05-24T05:44:21.973Z,54.57
2018-05-24T05:46:50.445Z,53.70
2018-05-24T05:49:18.825Z,53.04
2018-05-24T05:51:47.217Z,52.69
2018-05-24T05:54:15.666Z,52.25
2018-05-24T05:56:44.180Z,51.90
2018-05-24T05:59:12.590Z,50.83
2018-05-24T06:01:41.102Z,49.88
2018-05-24T06:04:09.523Z,49.18
2018-05-24T06:06:37.971Z,49.56
2018-05-24T06:09:08.393Z,49.60
2018-05-24T06:11:36.795Z,49.60
2018-05-24T06:14:05.244Z,50.78
2018-05-24T06:16:33.627Z,51.07
2018-05-24T06:19:02.113Z,50.55
2018-05-24T06:21:30.555Z,49.73
2018-05-24T06:23:58.981Z,50.24
2018-05-24T06:26:27.519Z,50.15
2018-05-24T06:28:55.936Z,50.77
2018-05-24T06:31:24.339Z,50.81
2018-05-24T06:33:52.817Z,50.64
2018-05-24T06:36:21.230Z,50.02
2018-05-24T06:38:49.614Z,50.52
2018-05-24T06:41:18.045Z,49.74
2018-05-24T06:43:46.484Z,49.73
2018-05-24T06:46:14.939Z,49.57
2018-05-24T06:48:43.463Z,49.69
2018-05-24T06:51:11.838Z,48.63
2018-05-24T06:53:40.283Z,47.68
2018-05-24T06:56:08.775Z,46.23
2018-05-24T06:58:37.222Z,47.08
2018-05-24T07:01:05.685Z,46.78
2018-05-24T07:03:34.303Z,46.31
2018-05-24T07:06:02.823Z,45.28
2018-05-24T07:08:31.198Z,45.10
2018-05-24T07:10:59.620Z,46.56
2018-05-24T07:13:28.059Z,46.21
2018-05-24T07:15:56.482Z,46.50
2018-05-24T07:18:24.868Z,45.96
2018-05-24T07:20:53.443Z,45.81
2018-05-24T07:23:21.840Z,45.21
2018-05-24T07:25:50.283Z,45.14
2018-05-24T07:28:18.692Z,44.09
2018-05-24T07:30:47.179Z,45.83
2018-05-24T07:33:15.577Z,45.23
2018-05-24T07:35:44.041Z,45.23
2018-05-24T07:38:12.411Z,43.75
2018-05-24T07:40:40.815Z,42.51
2018-05-24T07:43:09.247Z,42.51
2018-05-24T07:45:37.651Z,41.89
2018-05-24T07:48:06.035Z,40.76
2018-05-24T07:50:34.483Z,41.60
2018-05-24T07:53:02.906Z,40.44
2018-05-24T07:55:31.349Z,40.03
2018-05-24T07:57:59.850Z,38.81
2018-05-24T08:00:28.219Z,37.90
2018-05-24T08:02:56.624Z,36.51
2018-05-24T08:05:25.074Z,35.74
2018-05-24T08:07:53.527Z,35.86
2018-05-24T08:10:21.975Z,36.16
2018-05-24T08:12:50.906Z,35.18
2018-05-24T08:15:19.470Z,35.48
2018-05-24T08:17:47.849Z,34.11
2018-05-24T08:20:16.273Z,34.55
2018-05-24T08:22:44.651Z,35.63
2018-05-24T08:25:13.063Z,34.37
2018-05-24T08:27:41.443Z,35.11
2018-05-24T08:30:09.878Z,33.52
2018-05-24T08:32:38.403Z,34.49
2018-05-24T08:35:06.826Z,32.34
2018-05-24T08:37:35.236Z,33.01
2018-05-24T08:40:03.651Z,34.32
2018-05-24T08:42:32.046Z,34.53
2018-05-24T08:45:00.491Z,34.88
2018-05-24T08:47:29.039Z,36.43
2018-05-24T08:49:57.418Z,39.22
2018-05-24T08:52:25.877Z,38.98
2018-05-24T08:54:54.265Z,39.49
2018-05-24T08:57:22.700Z,39.11
2018-05-24T08:59:51.092Z,37.62
2018-05-24T09:02:19.514Z,37.07
2018-05-24T09:04:47.942Z,37.17
2018-05-24T09:07:16.356Z,37.04
2018-05-24T09:09:44.750Z,36.57
2018-05-24T09:12:13.172Z,34.95
2018-05-24T09:14:41.541Z,34.56
2018-05-24T09:17:09.931Z,33.11
2018-05-24T09:19:38.391Z,34.30
2018-05-24T09:22:06.802Z,34.48
2018-05-24T09:24:35.183Z,34.93
2018-05-24T09:27:03.633Z,34.47
2018-05-24T09:29:32.087Z,33.74
2018-05-24T09:32:00.495Z,34.03
2018-05-24T09:34:28.915Z,34.60
2018-05-24T09:36:57.391Z,34.17
2018-05-24T09:39:25.818Z,34.04
2018-05-24T09:41:54.895Z,34.86
2018-05-24T09:44:23.592Z,34.22
2018-05-24T09:46:51.966Z,36.55
2018-05-24T09:49:20.372Z,35.74
2018-05-24T09:51:48.803Z,34.42
2018-05-24T09:54:17.217Z,36.89
2018-05-24T09:56:45.635Z,38.07
2018-05-24T09:59:14.063Z,37.70
2018-05-24T10:01:42.487Z,37.01
2018-05-24T10:04:10.861Z,38.57
2018-05-24T10:06:39.270Z,39.74
2018-05-24T10:09:07.711Z,39.12
2018-05-24T10:11:36.180Z,38.00
2018-05-24T10:14:04.701Z,37.82
2018-05-24T10:16:33.201Z,37.77
2018-05-24T10:19:01.565Z,37.85
2018-05-24T10:21:29.926Z,38.09
2018-05-24T10:23:58.343Z,38.39
2018-05-24T10:26:26.790Z,37.82
2018-05-24T10:28:55.143Z,37.19
2018-05-24T10:31:23.516Z,36.47
2018-05-24T10:33:51.991Z,37.76
2018-05-24T10:36:20.462Z,37.33
2018-05-24T10:38:48.854Z,37.90
2018-05-24T10:41:17.251Z,38.25
2018-05-24T10:43:45.651Z,39.93
2018-05-24T10:46:14.079Z,40.19
2018-05-24T10:48:42.463Z,40.08
2018-05-24T10:51:10.954Z,38.91
2018-05-24T10:53:39.314Z,37.45
2018-05-24T10:56:07.719Z,36.76
2018-05-24T10:58:36.146Z,34.62
2018-05-24T11:01:04.538Z,34.30
2018-05-24T11:03:32.946Z,34.27
2018-05-24T11:06:01.452Z,35.38
2018-05-24T11:08:29.963Z,38.37
2018-05-24T11:10:58.359Z,38.19
2018-05-24T11:13:26.787Z,37.69
2018-05-24T11:15:55.203Z,37.27
2018-05-24T11:18:23.631Z,38.86
2018-05-24T11:20:52.056Z,40.45
2018-05-24T11:23:20.499Z,42.83
2018-05-24T11:25:48.915Z,44.84
2018-05-24T11:28:17.283Z,45.49
2018-05-24T11:30:45.770Z,46.76
2018-05-24T11:33:14.149Z,47.48
2018-05-24T11:35:42.528Z,46.02
2018-05-24T11:38:10.956Z,45.91
2018-05-24T11:40:39.381Z,45.03
2018-05-24T11:43:07.808Z,45.56
2018-05-24T11:45:36.251Z,44.84
2018-05-24T11:48:04.716Z,44.81
2018-05-24T11:50:33.195Z,45.20
2018-05-24T11:53:01.615Z,45.89
2018-05-24T11:55:30.031Z,47.27
2018-05-24T11:57:58.413Z,47.12
2018-05-24T12:00:26.823Z,46.09
2018-05-24T12:02:55.198Z,46.98
2018-05-24T12:05:23.605Z,47.54
2018-05-24T12:07:52.075Z,48.94
2018-05-24T12:10:20.490Z,48.20
2018-05-24T12:12:48.911Z,49.32
2018-05-24T12:15:17.343Z,50.21
2018-05-24T12:17:45.742Z,49.90
2018-05-24T12:20:14.126Z,50.53
2018-05-24T12:22:42.586Z,51.23
2018-05-24T12:25:11.043Z,51.42
2018-05-24T12:27:39.447Z,52.41
2018-05-24T12:30:07.896Z,52.95
2018-05-24T12:32:36.307Z,53.73
2018-05-24T12:35:04.697Z,53.78
2018-05-24T12:37:33.152Z,52.92
2018-05-24T12:40:01.611Z,54.55
2018-05-24T12:42:30.219Z,55.66
2018-05-24T12:44:58.655Z,56.85
2018-05-24T12:47:27.540Z,58.58
2018-05-24T12:49:55.953Z,59.60
2018-05-24T12:52:24.497Z,60.23
2018-05-24T12:54:52.966Z,60.64
2018-05-24T12:57:21.636Z,60.31
2018-05-24T12:59:50.085Z,60.57
2018-05-24T13:02:18.540Z,61.04
2018-05-24T13:04:46.935Z,60.40
2018-05-24T13:07:15.343Z,58.02
2018-05-24T13:09:43.761Z,58.53
2018-05-24T13:12:12.153Z,57.91
2018-05-24T13:14:40.923Z,55.65
2018-05-24T13:17:09.319Z,56.21
2018-05-24T13:19:37.664Z,53.81
2018-05-24T13:22:06.563Z,54.18
2018-05-24T13:24:34.927Z,53.30
2018-05-24T13:27:03.297Z,52.47
2018-05-24T13:29:31.920Z,50.24
2018-05-24T13:32:00.284Z,46.05
2018-05-24T13:34:28.750Z,44.41
2018-05-24T13:36:57.657Z,42.46
2018-05-24T13:39:26.032Z,42.82
2018-05-24T13:41:54.491Z,41.84
2018-05-24T13:44:23.110Z,42.88
2018-05-24T13:46:51.520Z,43.37
2018-05-24T13:49:19.928Z,43.91
2018-05-24T13:51:48.782Z,44.37
2018-05-24T13:54:17.194Z,42.74
2018-05-24T13:56:45.564Z,41.73
2018-05-24T13:59:14.308Z,40.49
2018-05-24T14:01:42.802Z,38.57
2018-05-24T14:04:11.177Z,37.15
2018-05-24T14:06:39.577Z,36.86
2018-05-24T14:09:07.992Z,36.88
2018-05-24T14:11:36.359Z,37.16
2018-05-24T14:14:05.339Z,36.44
2018-05-24T14:16:33.703Z,34.58
2018-05-24T14:19:02.129Z,33.61
2018-05-24T14:21:31.169Z,35.82
2018-05-24T14:23:59.570Z,34.45
2018-05-24T14:26:27.958Z,33.25
2018-05-24T14:28:56.733Z,32.95
2018-05-24T14:31:25.201Z,33.74
2018-05-24T14:33:53.566Z,32.03
2018-05-24T14:36:22.353Z,30.76
2018-05-24T14:38:50.718Z,28.99
2018-05-24T14:41:19.077Z,26.48
2018-05-24T14:43:47.983Z,24.03
2018-05-24T14:46:16.363Z,23.53
2018-05-24T14:48:44.746Z,23.05
2018-05-24T14:51:13.367Z,22.16
2018-05-24T14:53:41.740Z,20.75
2018-05-24T14:56:10.103Z,21.20
2018-05-24T14:58:38.527Z,19.59
2018-05-24T15:01:07.124Z,18.89
2018-05-24T15:03:35.605Z,18.48
2018-05-24T15:06:04.018Z,18.04
2018-05-24T15:08:32.399Z,18.67
2018-05-24T15:11:01.567Z,19.62
2018-05-24T15:13:41.802Z,19.05
2018-05-24T15:16:10.283Z,19.70
2018-05-24T15:18:38.915Z,19.96
2018-05-24T15:21:07.376Z,19.32
2018-05-24T15:23:35.739Z,20.77
2018-05-24T15:26:04.185Z,20.71
2018-05-24T15:28:32.576Z,21.68
2018-05-24T15:31:01.009Z,21.89
2018-05-24T15:33:29.506Z,21.91
2018-05-24T15:35:57.928Z,21.80
2018-05-24T15:38:26.431Z,20.53
2018-05-24T15:40:54.843Z,20.57
2018-05-24T15:43:23.215Z,22.58
2018-05-24T15:45:51.641Z,24.85
2018-05-24T15:48:20.075Z,25.47
2018-05-24T15:50:48.461Z,26.48
2018-05-24T15:53:16.889Z,27.05
2018-05-24T15:55:45.246Z,27.83
2018-05-24T15:58:13.647Z,32.15
2018-05-24T16:00:42.010Z,35.92
2018-05-24T16:03:10.441Z,35.95
2018-05-24T16:05:38.852Z,35.24
2018-05-24T16:08:07.292Z,33.69
2018-05-24T16:10:35.691Z,34.74
2018-05-24T16:13:04.078Z,36.35
2018-05-24T16:15:32.475Z,38.34
2018-05-24T16:18:00.838Z,38.74
2018-05-24T16:20:29.239Z,39.37
2018-05-24T16:22:57.601Z,39.96
2018-05-24T16:25:26.125Z,42.67
2018-05-24T16:27:54.513Z,43.61
2018-05-24T16:30:22.947Z,44.54
2018-05-24T16:32:51.356Z,46.25
2018-05-24T16:35:19.767Z,48.25
2018-05-24T16:37:48.187Z,47.89
2018-05-24T16:40:16.563Z,49.96
2018-05-24T16:42:44.976Z,50.52
2018-05-24T16:45:13.368Z,51.72
2018-05-24T16:47:41.778Z,50.81
2018-05-24T16:50:10.191Z,49.94
2018-05-24T16:52:38.605Z,50.55
2018-05-24T16:55:06.984Z,52.13
2018-05-24T16:57:35.352Z,52.79
2018-05-24T17:00:03.794Z,52.67
2018-05-24T17:02:32.314Z,53.01
2018-05-24T17:05:00.750Z,52.56
2018-05-24T17:07:29.114Z,53.37
2018-05-24T17:09:57.516Z,53.81
2018-05-24T17:12:25.891Z,53.75
2018-05-24T17:14:54.532Z,53.79
2018-05-24T17:17:22.932Z,55.21
2018-05-24T17:19:51.323Z,56.98
2018-05-24T17:22:19.728Z,58.69
2018-05-24T17:24:48.121Z,58.77
2018-05-24T17:27:16.538Z,60.08
2018-05-24T17:29:44.947Z,60.11
2018-05-24T17:32:13.373Z,60.08
2018-05-24T17:34:41.754Z,60.50
2018-05-24T17:37:10.251Z,60.25
2018-05-24T17:39:38.627Z,61.22
2018-05-24T17:42:06.996Z,61.81
2018-05-24T17:44:35.412Z,62.45
2018-05-24T17:47:03.781Z,62.86
2018-05-24T17:49:32.170Z,62.64
2018-05-24T17:52:00.585Z,62.96
2018-05-24T17:54:28.951Z,63.04
2018-05-24T17:56:57.386Z,62.23
2018-05-24T17:59:25.766Z,61.98
2018-05-24T18:01:54.223Z,62.62
2018-05-24T18:04:22.675Z,63.63
2018-05-24T18:06:51.095Z,63.98
2018-05-24T18:09:19.479Z,64.02
2018-05-24T18:11:47.879Z,63.40
2018-05-24T18:14:16.407Z,63.04
2018-05-24T18:16:44.841Z,62.82
2018-05-24T18:19:13.255Z,62.26
2018-05-24T18:21:41.691Z,62.62
2018-05-24T18:24:10.096Z,62.72
2018-05-24T18:26:38.459Z,62.44
2018-05-24T18:29:06.946Z,62.72
2018-05-24T18:31:35.378Z,62.51
2018-05-24T18:34:03.816Z,62.84
2018-05-24T18:36:32.249Z,63.08
2018-05-24T18:39:00.622Z,63.56
2018-05-24T18:41:29.028Z,63.52
2018-05-24T18:43:57.438Z,63.61
2018-05-24T18:46:25.827Z,63.32
2018-05-24T18:48:54.284Z,63.30
2018-05-24T18:51:22.716Z,63.83
2018-05-24T18:53:51.202Z,64.34
2018-05-24T18:56:19.640Z,64.42
2018-05-24T18:58:48.040Z,63.61
2018-05-24T19:01:16.817Z,63.46
2018-05-24T19:03:45.197Z,63.52
2018-05-24T19:06:13.559Z,63.72
2018-05-24T19:08:42.020Z,64.67
2018-05-24T19:11:10.543Z,65.25
2018-05-24T19:13:38.928Z,65.57
2018-05-24T19:16:07.363Z,65.27
2018-05-24T19:18:35.779Z,65.57
2018-05-24T19:21:04.157Z,64.73
2018-05-24T19:23:32.590Z,64.93
2018-05-24T19:26:00.967Z,64.90
2018-05-24T19:28:29.328Z,65.05
2018-05-24T19:30:57.817Z,66.78
2018-05-24T19:33:26.220Z,65.50
2018-05-24T19:35:54.762Z,66.75
2018-05-24T19:38:23.324Z,67.34
2018-05-24T19:40:51.722Z,66.72
2018-05-24T19:43:20.122Z,66.39
2018-05-24T19:45:48.534Z,66.35
2018-05-24T19:48:16.915Z,66.79
2018-05-24T19:50:45.294Z,67.21
2018-05-24T19:53:14.047Z,67.77
2018-05-24T19:55:42.490Z,69.22
2018-05-24T19:58:10.895Z,69.26
2018-05-24T20:00:39.416Z,69.76
2018-05-24T20:03:08.063Z,69.80
2018-05-24T20:05:36.451Z,70.39
2018-05-24T20:08:04.844Z,70.38
2018-05-24T20:10:33.596Z,70.67
2018-05-24T20:13:01.981Z,70.36
2018-05-24T20:15:30.371Z,69.77
2018-05-24T20:17:59.140Z,70.26
2018-05-24T20:20:27.499Z,70.07
2018-05-24T20:22:55.883Z,69.58
2018-05-24T20:25:24.487Z,70.21
2018-05-24T20:27:52.851Z,71.37
2018-05-24T20:30:21.247Z,71.32
2018-05-24T20:32:50.064Z,70.06
2018-05-24T20:37:53.504Z,71.03
2018-05-24T20:40:21.906Z,72.14
2018-05-24T20:42:50.278Z,71.61
2018-05-24T20:45:19.010Z,72.54
2018-05-24T20:47:47.559Z,72.13
2018-05-24T20:50:15.920Z,71.50
2018-05-24T20:52:44.329Z,71.18
2018-05-24T20:55:12.691Z,71.76
2018-05-24T20:57:41.051Z,71.67
2018-05-24T21:00:09.860Z,71.86
2018-05-24T21:02:38.243Z,70.65
2018-05-24T21:05:06.607Z,71.28
2018-05-24T21:07:35.435Z,72.15
2018-05-24T21:10:03.874Z,72.19
2018-05-24T21:12:32.239Z,72.16
2018-05-24T21:15:00.785Z,72.46
2018-05-24T21:17:29.194Z,72.30
2018-05-24T21:19:57.611Z,72.69
2018-05-24T21:22:26.294Z,73.38
2018-05-24T21:24:54.656Z,73.07
2018-05-24T21:27:23.038Z,73.00
2018-05-24T21:29:51.872Z,74.96
2018-05-24T21:32:20.248Z,74.97
2018-05-24T21:34:48.849Z,74.22
2018-05-24T21:37:18.052Z,74.85
2018-05-24T21:39:46.457Z,75.45
2018-05-24T21:42:14.863Z,75.72
2018-05-24T21:44:43.682Z,74.17
2018-05-24T21:47:12.055Z,74.96
2018-05-24T21:49:40.425Z,75.14
2018-05-24T21:52:08.834Z,75.67
2018-05-24T21:54:37.205Z,76.03
2018-05-24T21:57:05.571Z,75.33
2018-05-24T21:59:34.270Z,75.98
2018-05-24T22:02:02.706Z,74.91
2018-05-24T22:04:31.039Z,74.53
2018-05-24T22:06:59.695Z,76.40
2018-05-24T22:09:28.059Z,76.76
2018-05-24T22:11:56.498Z,75.52
2018-05-24T22:14:25.242Z,75.72
2018-05-24T22:16:53.643Z,75.95
2018-05-24T22:19:22.023Z,75.46
2018-05-24T22:21:50.619Z,75.96
2018-05-24T22:24:19.014Z,75.83
2018-05-24T22:26:47.392Z,75.49
2018-05-24T22:29:16.053Z,76.56
2018-05-24T22:31:44.440Z,75.92
2018-05-24T22:34:12.800Z,75.56
2018-05-24T22:36:41.404Z,76.48
2018-05-24T22:39:09.773Z,76.26
2018-05-24T22:41:38.137Z,75.96
2018-05-24T22:44:06.548Z,75.42
2018-05-24T22:46:34.982Z,75.46
2018-05-24T22:49:03.357Z,76.07
2018-05-24T22:51:32.087Z,76.02
2018-05-24T22:54:00.458Z,75.97
2018-05-24T22:56:28.894Z,77.03
2018-05-24T22:58:57.640Z,76.78
2018-05-24T23:01:26.203Z,76.71
2018-05-24T23:03:54.606Z,76.26
2018-05-24T23:06:23.310Z,78.11
2018-05-24T23:08:51.705Z,78.90
2018-05-24T23:11:20.077Z,78.78
2018-05-24T23:13:48.839Z,78.25
2018-05-24T23:16:17.213Z,77.17
2018-05-24T23:18:45.655Z,77.50
2018-05-24T23:21:14.505Z,78.78
2018-05-24T23:23:43.075Z,80.25
2018-05-24T23:26:11.494Z,80.11
2018-05-24T23:28:40.251Z,80.03
2018-05-24T23:31:08.631Z,79.73
2018-05-24T23:33:37.009Z,80.85
2018-05-24T23:36:05.802Z,80.93
2018-05-24T23:38:34.167Z,81.06
2018-05-24T23:41:02.553Z,80.72
2018-05-24T23:43:31.242Z,80.96
2018-05-24T23:45:59.656Z,79.13
2018-05-24T23:48:28.036Z,79.10
2018-05-24T23:50:56.801Z,78.24
2018-05-24T23:53:25.189Z,78.33
2018-05-24T23:55:53.571Z,79.31
2018-05-24T23:58:22.251Z,79.38
